Time;durP1;ratioP1;P1;durP2;ratioP2;P2;SDS_P1;SDS_P2;PMS_P1;PMS_P2;Temp;Humidity;BMP_temperature;BMP_pressure;BME280_temperature;BME280_humidity;BME280_pressure;Samples;Min_cycle;Max_cycle;Signal;HPM_P1;HPM_P2
2022/10/12 16:54:17;;;;;;;6.78;1.63;;;19.60;99.30;;;;;;7108338;19;5010354;-91
2022/10/12 16:56:44;;;;;;;4.93;1.50;;;18.80;99.90;;;;;;7414077;19;19917;-89
2022/10/12 16:59:10;;;;;;;5.18;1.20;;;17.60;99.90;;;;;;7436490;19;19918;-89
2022/10/12 17:01:35;;;;;;;6.72;1.80;;;16.40;99.90;;;;;;7438237;19;19994;-88
2022/10/12 17:04:01;;;;;;;7.43;1.77;;;15.40;99.90;;;;;;7439861;19;19923;-89
2022/10/12 17:06:28;;;;;;;7.30;1.70;;;14.60;99.90;;;;;;7440267;19;19945;-87
2022/10/12 17:08:57;;;;;;;7.57;1.92;;;14.10;99.90;;;;;;7438254;19;19914;-88
2022/10/12 17:11:23;;;;;;;11.60;3.25;;;13.60;99.90;;;;;;7439900;19;19925;-87
2022/10/12 17:13:50;;;;;;;10.32;2.97;;;13.30;99.90;;;;;;7432753;19;19914;-88
2022/10/12 17:19:02;;;;;;;9.35;2.60;;;12.90;99.90;;;;;;7434559;19;19915;-87
2022/10/12 17:21:28;;;;;;;10.70;3.15;;;12.80;99.90;;;;;;7434807;19;19922;-87
2022/10/12 17:23:59;;;;;;;8.15;3.47;;;12.70;99.90;;;;;;7438485;19;20291;-88
2022/10/12 17:26:25;;;;;;;7.22;1.85;;;12.60;99.90;;;;;;7437877;19;19922;-87
2022/10/12 17:28:51;;;;;;;8.00;1.90;;;12.50;99.90;;;;;;7439246;19;19929;-87
2022/10/12 17:31:16;;;;;;;9.55;3.50;;;12.40;99.90;;;;;;7438821;19;20318;-87
2022/10/12 17:33:42;;;;;;;7.93;1.67;;;12.30;99.90;;;;;;7434571;19;19974;-91
2022/10/12 17:36:09;;;;;;;7.97;1.90;;;12.30;99.90;;;;;;7440943;19;19943;-92
2022/10/12 17:38:36;;;;;;;7.28;1.77;;;12.30;99.90;;;;;;7439639;19;19931;-87
2022/10/12 17:41:03;;;;;;;7.13;1.88;;;12.20;99.90;;;;;;7439690;19;19941;-87
2022/10/12 17:43:29;;;;;;;5.15;1.70;;;12.30;99.90;;;;;;7436749;19;19911;-86
2022/10/12 17:45:55;;;;;;;9.30;1.83;;;12.20;99.90;;;;;;7435967;19;19933;-90
2022/10/12 17:48:21;;;;;;;7.75;3.08;;;12.20;99.90;;;;;;7440323;19;20283;-88
2022/10/12 17:50:47;;;;;;;6.20;2.58;;;12.10;99.90;;;;;;7439141;19;19914;-87
2022/10/12 17:53:13;;;;;;;8.88;2.78;;;12.00;99.90;;;;;;7438283;19;19990;-91
2022/10/12 17:55:38;;;;;;;8.88;2.08;;;12.00;99.90;;;;;;7438230;19;20340;-90
2022/10/12 17:58:06;;;;;;;8.27;2.67;;;11.90;99.90;;;;;;7439335;19;19918;-95
2022/10/12 18:00:33;;;;;;;13.50;4.43;;;11.80;99.90;;;;;;7438505;19;19918;-96
2022/10/12 18:02:59;;;;;;;11.15;2.78;;;11.80;99.90;;;;;;7442750;19;19932;-95
2022/10/12 18:05:25;;;;;;;10.48;3.60;;;11.70;99.90;;;;;;7416748;19;20287;-95
2022/10/12 18:07:51;;;;;;;9.70;2.03;;;11.70;99.90;;;;;;7410735;19;19930;-91
2022/10/12 18:10:17;;;;;;;9.57;2.85;;;11.70;99.90;;;;;;7406689;19;19914;-91
2022/10/12 18:12:43;;;;;;;10.10;2.67;;;11.60;99.90;;;;;;7407715;19;19929;-89
2022/10/12 18:15:10;;;;;;;7.20;2.70;;;11.60;99.90;;;;;;7411849;19;20002;-87
2022/10/12 18:17:36;;;;;;;5.68;2.25;;;11.50;99.90;;;;;;7408214;19;19927;-89
2022/10/12 18:20:03;;;;;;;10.07;2.45;;;11.50;99.90;;;;;;7408131;19;19974;-95
2022/10/12 18:22:29;;;;;;;6.95;3.15;;;11.50;99.90;;;;;;7407800;19;19939;-95
2022/10/12 18:24:55;;;;;;;13.85;4.07;;;11.50;99.90;;;;;;7408682;19;20252;-93
2022/10/12 18:27:21;;;;;;;9.18;3.53;;;11.50;99.90;;;;;;7407634;19;19915;-94
2022/10/12 18:29:46;;;;;;;9.40;2.72;;;11.40;99.90;;;;;;7411768;19;19914;-94
2022/10/12 18:32:12;;;;;;;5.68;2.38;;;11.50;99.90;;;;;;7410777;19;19919;-91
2022/10/12 18:34:39;;;;;;;10.13;2.45;;;11.40;99.90;;;;;;7408075;19;19936;-91
2022/10/12 18:37:06;;;;;;;6.60;2.47;;;11.40;99.90;;;;;;7405654;19;19982;-91
2022/10/12 18:39:32;;;;;;;12.10;2.22;;;11.40;99.90;;;;;;7409368;19;19943;-89
2022/10/12 18:41:58;;;;;;;9.95;2.63;;;11.30;99.90;;;;;;7408657;19;19918;-96
2022/10/12 18:44:24;;;;;;;7.88;2.58;;;11.30;99.90;;;;;;7406692;19;19925;-91
2022/10/12 18:46:50;;;;;;;10.57;3.65;;;11.20;99.90;;;;;;7406008;19;19947;-88
2022/10/12 18:49:16;;;;;;;11.68;3.38;;;11.30;99.90;;;;;;7407864;19;19946;-88
2022/10/12 18:51:46;;;;;;;10.80;2.65;;;11.30;99.90;;;;;;7409546;19;19923;-89
2022/10/12 18:54:15;;;;;;;11.02;4.38;;;11.20;99.90;;;;;;7405041;19;19911;-86
2022/10/12 18:56:42;;;;;;;10.48;3.58;;;11.30;99.90;;;;;;7403624;19;20356;-86
2022/10/12 18:59:11;;;;;;;9.73;2.28;;;11.30;99.90;;;;;;7405501;19;19938;-88
2022/10/12 19:01:37;;;;;;;12.98;2.72;;;11.30;99.90;;;;;;7409039;19;19931;-87
2022/10/12 19:04:05;;;;;;;7.43;3.20;;;11.30;99.90;;;;;;7404861;19;19922;-87
2022/10/12 19:06:35;;;;;;;8.82;3.75;;;11.30;99.90;;;;;;7406757;19;19949;-89
2022/10/12 19:09:04;;;;;;;13.90;3.70;;;11.30;99.90;;;;;;7404554;19;19917;-89
2022/10/12 19:11:30;;;;;;;10.55;4.05;;;11.40;99.90;;;;;;7408984;19;19919;-88
2022/10/12 19:14:02;;;;;;;14.77;3.28;;;11.30;99.90;;;;;;7406024;19;19927;-88
2022/10/12 19:16:29;;;;;;;8.73;2.20;;;11.30;99.90;;;;;;7401915;19;19939;-89
2022/10/12 19:18:57;;;;;;;9.73;3.08;;;11.30;99.90;;;;;;7404003;19;19914;-90
2022/10/12 19:21:24;;;;;;;7.75;2.75;;;11.30;99.90;;;;;;7408277;19;19914;-86
2022/10/12 19:23:50;;;;;;;10.25;2.65;;;11.30;99.90;;;;;;7405957;19;19930;-87
2022/10/12 19:26:24;;;;;;;6.15;2.92;;;11.30;99.90;;;;;;7405248;19;19915;-88
2022/10/12 19:28:52;;;;;;;10.30;2.40;;;11.30;99.90;;;;;;7407310;19;20404;-89
2022/10/12 19:31:21;;;;;;;9.95;3.45;;;11.30;99.90;;;;;;7407221;19;19910;-88
2022/10/12 19:33:48;;;;;;;8.38;3.20;;;11.30;99.90;;;;;;7403026;19;20380;-85
2022/10/12 19:36:17;;;;;;;8.23;2.92;;;11.30;99.90;;;;;;7408196;19;20432;-88
2022/10/12 19:38:46;;;;;;;9.63;4.18;;;11.30;99.90;;;;;;7405793;19;19918;-89
2022/10/12 19:41:12;;;;;;;10.68;4.00;;;11.30;99.90;;;;;;7406311;19;19935;-91
2022/10/12 19:43:39;;;;;;;9.68;4.15;;;11.30;99.90;;;;;;7403380;19;20335;-87
2022/10/12 19:46:08;;;;;;;10.30;2.97;;;11.30;99.90;;;;;;7408232;19;19918;-89
2022/10/12 19:48:36;;;;;;;9.18;3.70;;;11.20;99.90;;;;;;7402613;19;19918;-87
2022/10/12 19:51:10;;;;;;;7.18;2.97;;;11.20;99.90;;;;;;7406335;19;19926;-89
2022/10/12 19:53:38;;;;;;;8.77;4.25;;;11.20;99.90;;;;;;7403995;19;19941;-83
2022/10/12 19:56:07;;;;;;;9.27;3.75;;;11.20;99.90;;;;;;7406119;19;19919;-84
2022/10/12 19:58:33;;;;;;;8.10;3.33;;;11.20;99.90;;;;;;7401420;19;19947;-85
2022/10/12 20:01:02;;;;;;;8.88;3.42;;;11.10;99.90;;;;;;7405101;19;19914;-86
2022/10/12 20:03:28;;;;;;;9.85;3.97;;;11.10;99.90;;;;;;7406115;19;19934;-85
2022/10/12 20:05:54;;;;;;;8.55;3.53;;;11.10;99.90;;;;;;7404522;19;19919;-87
2022/10/12 20:08:20;;;;;;;7.38;2.65;;;11.10;99.90;;;;;;7402874;19;19929;-86
2022/10/12 20:10:46;;;;;;;10.93;5.00;;;11.10;99.90;;;;;;7390349;19;19922;-84
2022/10/12 20:13:12;;;;;;;8.27;3.55;;;11.10;99.90;;;;;;7293635;19;19933;-84
2022/10/12 20:15:38;;;;;;;9.10;4.78;;;11.10;99.90;;;;;;7403672;19;19921;-83
2022/10/12 20:18:04;;;;;;;10.32;3.78;;;11.10;99.90;;;;;;7408004;19;20310;-82
2022/10/12 20:20:30;;;;;;;10.85;3.70;;;11.10;99.90;;;;;;7403929;19;19914;-84
2022/10/12 20:22:56;;;;;;;12.75;3.30;;;11.10;99.90;;;;;;7402503;19;19946;-84
2022/10/12 20:25:22;;;;;;;11.52;3.63;;;11.10;99.90;;;;;;7402021;19;20351;-85
2022/10/12 20:27:48;;;;;;;11.90;4.25;;;11.10;99.90;;;;;;7402881;19;19945;-84
2022/10/12 20:30:14;;;;;;;11.50;3.88;;;11.10;99.90;;;;;;7402546;19;19926;-83
2022/10/12 20:32:40;;;;;;;12.45;3.58;;;11.00;99.90;;;;;;7405841;19;19918;-83
2022/10/12 20:35:06;;;;;;;11.13;3.70;;;10.90;99.90;;;;;;7401354;19;19922;-83
2022/10/12 20:37:32;;;;;;;12.13;3.72;;;10.90;99.90;;;;;;7405808;19;19929;-83
2022/10/12 20:39:58;;;;;;;9.55;4.60;;;10.90;99.90;;;;;;7403272;19;19990;-82
2022/10/12 20:42:24;;;;;;;11.25;5.53;;;10.80;99.90;;;;;;7404812;19;19922;-84
2022/10/12 20:44:50;;;;;;;15.38;5.25;;;10.70;99.90;;;;;;7400966;19;19921;-85
2022/10/12 20:47:16;;;;;;;14.55;5.78;;;10.70;99.90;;;;;;7398957;19;19915;-82
2022/10/12 20:49:43;;;;;;;14.23;4.50;;;10.60;99.90;;;;;;7401023;19;19918;-82
2022/10/12 20:52:09;;;;;;;12.90;3.92;;;10.50;99.90;;;;;;7402073;19;19956;-82
2022/10/12 20:54:36;;;;;;;10.35;3.90;;;10.50;99.90;;;;;;7404215;19;20358;-82
2022/10/12 20:57:03;;;;;;;10.98;4.18;;;10.40;99.90;;;;;;7402207;19;19939;-82
2022/10/12 20:59:30;;;;;;;10.93;5.22;;;10.30;99.90;;;;;;7405207;19;20362;-82
2022/10/12 21:01:56;;;;;;;10.35;3.97;;;10.20;99.90;;;;;;7403843;19;19931;-83
2022/10/12 21:04:24;;;;;;;12.48;5.97;;;10.20;99.90;;;;;;7405220;19;19915;-83
2022/10/12 21:06:50;;;;;;;13.82;4.88;;;10.10;99.90;;;;;;7405171;19;19957;-83
2022/10/12 21:09:16;;;;;;;11.52;5.65;;;10.00;99.90;;;;;;7404321;19;20324;-82
2022/10/12 21:11:42;;;;;;;10.32;5.28;;;9.90;99.90;;;;;;7406767;19;20286;-82
2022/10/12 21:14:11;;;;;;;14.50;5.82;;;9.90;99.90;;;;;;7401140;19;19919;-82
2022/10/12 21:16:37;;;;;;;11.43;4.18;;;9.80;99.90;;;;;;7404620;19;19930;-82
2022/10/12 21:19:03;;;;;;;10.30;5.43;;;9.80;99.90;;;;;;7406677;19;20037;-82
2022/10/12 21:21:29;;;;;;;14.48;5.45;;;9.80;99.90;;;;;;7403476;19;20273;-82
2022/10/12 21:23:57;;;;;;;8.55;3.97;;;9.70;99.90;;;;;;7402975;19;19919;-82
2022/10/12 21:26:28;;;;;;;10.90;5.25;;;9.70;99.90;;;;;;7405395;19;19938;-82
2022/10/12 21:28:54;;;;;;;13.30;6.03;;;9.60;99.90;;;;;;7406257;19;19926;-82
2022/10/12 21:31:20;;;;;;;15.02;6.10;;;9.60;99.90;;;;;;7397320;19;19922;-81
2022/10/12 21:33:46;;;;;;;13.98;6.70;;;9.50;99.90;;;;;;7402605;19;19915;-81
2022/10/12 21:36:16;;;;;;;12.18;5.25;;;9.50;99.90;;;;;;7403739;19;20249;-82
2022/10/12 21:38:42;;;;;;;13.93;6.75;;;9.50;99.90;;;;;;7402801;19;20522;-83
2022/10/12 21:41:10;;;;;;;12.32;4.50;;;9.50;99.90;;;;;;7411717;19;20337;-83
2022/10/12 21:43:37;;;;;;;13.98;4.93;;;9.50;99.90;;;;;;7408055;19;20592;-82
2022/10/12 21:46:06;;;;;;;12.38;4.20;;;9.50;99.90;;;;;;7408620;19;19929;-83
2022/10/12 21:48:32;;;;;;;11.82;5.13;;;9.50;99.90;;;;;;7409124;19;19923;-83
2022/10/12 21:51:00;;;;;;;10.98;5.80;;;9.50;99.90;;;;;;7409444;19;19927;-82
2022/10/12 21:53:26;;;;;;;13.95;5.30;;;9.50;99.90;;;;;;7405757;19;20324;-83
2022/10/12 21:55:52;;;;;;;16.35;5.00;;;9.40;99.90;;;;;;7409339;19;19914;-82
2022/10/12 21:58:18;;;;;;;11.23;4.50;;;9.40;99.90;;;;;;7409508;19;19930;-83
2022/10/12 22:00:44;;;;;;;13.82;5.30;;;9.40;99.90;;;;;;7411230;19;19915;-83
2022/10/12 22:03:11;;;;;;;12.60;6.40;;;9.30;99.90;;;;;;7412496;19;19914;-83
2022/10/12 22:05:39;;;;;;;13.10;5.43;;;9.30;99.90;;;;;;7412586;19;19938;-83
2022/10/12 22:08:06;;;;;;;13.13;4.90;;;9.30;99.90;;;;;;7407833;19;19953;-83
2022/10/12 22:10:34;;;;;;;16.98;5.03;;;9.40;99.90;;;;;;7408933;19;19924;-83
2022/10/12 22:13:00;;;;;;;13.27;6.32;;;9.40;99.90;;;;;;7409095;19;19955;-83
2022/10/12 22:15:26;;;;;;;15.38;6.50;;;9.30;99.90;;;;;;7407768;19;20252;-83
2022/10/12 22:17:58;;;;;;;11.82;4.90;;;9.30;99.90;;;;;;7411905;19;19926;-83
2022/10/12 22:20:24;;;;;;;11.82;5.30;;;9.30;99.90;;;;;;7410913;19;19983;-83
2022/10/12 22:22:57;;;;;;;13.13;6.50;;;9.20;99.90;;;;;;7405827;19;20249;-83
2022/10/12 22:25:23;;;;;;;11.77;5.18;;;9.30;99.90;;;;;;7407061;19;19942;-83
2022/10/12 22:27:49;;;;;;;17.05;6.05;;;9.30;99.90;;;;;;7407805;19;19922;-83
2022/10/12 22:30:15;;;;;;;13.27;6.05;;;9.30;99.90;;;;;;7407790;19;19922;-83
2022/10/12 22:32:41;;;;;;;16.08;6.60;;;9.40;99.90;;;;;;7405602;19;19926;-83
2022/10/12 22:35:07;;;;;;;15.98;5.18;;;9.30;99.90;;;;;;7408136;19;20030;-83
2022/10/12 22:37:33;;;;;;;11.98;5.80;;;9.30;99.90;;;;;;7407368;19;19925;-83
2022/10/12 22:39:59;;;;;;;14.65;4.78;;;9.40;99.90;;;;;;7405133;19;20333;-83
2022/10/12 22:42:25;;;;;;;12.85;5.15;;;9.40;99.90;;;;;;7408836;19;19918;-83
2022/10/12 22:44:52;;;;;;;14.05;6.60;;;9.40;99.90;;;;;;7407459;19;19919;-83
2022/10/12 22:47:18;;;;;;;12.45;4.93;;;9.40;99.90;;;;;;7409269;19;19959;-83
2022/10/12 22:49:44;;;;;;;15.30;6.68;;;9.40;99.90;;;;;;7406908;19;19914;-83
2022/10/12 22:52:10;;;;;;;16.20;5.85;;;9.50;99.90;;;;;;7410255;19;19914;-83
2022/10/12 22:54:36;;;;;;;13.18;6.78;;;9.50;99.90;;;;;;7404548;19;19917;-83
2022/10/12 22:57:04;;;;;;;12.23;5.40;;;9.50;99.90;;;;;;7409103;19;19987;-83
2022/10/12 22:59:30;;;;;;;12.90;6.03;;;9.50;99.90;;;;;;7403845;19;20423;-83
2022/10/12 23:01:56;;;;;;;13.55;7.05;;;9.50;99.90;;;;;;7406079;19;19922;-83
